createdAt,value
2018-12-22T00:00:20.839Z,980.23
2018-12-22T00:01:20.993Z,980.23
2018-12-22T00:02:21.137Z,980.16
2018-12-22T00:03:21.288Z,980.23
2018-12-22T00:04:21.438Z,980.16
2018-12-22T00:05:21.592Z,980.23
2018-12-22T00:06:21.739Z,980.13
2018-12-22T00:07:21.886Z,980.20
2018-12-22T00:08:22.035Z,980.12
2018-12-22T00:09:22.187Z,980.10
2018-12-22T00:10:22.337Z,980.11
2018-12-22T00:11:22.492Z,980.21
2018-12-22T00:12:22.641Z,980.02
2018-12-22T00:13:22.794Z,980.23
2018-12-22T00:14:22.946Z,980.14
2018-12-22T00:15:23.093Z,980.04
2018-12-22T00:16:23.243Z,980.15
2018-12-22T00:17:23.394Z,980.13
2018-12-22T00:18:23.542Z,980.23
2018-12-22T00:19:23.696Z,980.16
2018-12-22T00:20:23.844Z,980.16
2018-12-22T00:21:23.991Z,980.18
2018-12-22T00:22:24.142Z,980.14
2018-12-22T00:23:24.295Z,980.20
2018-12-22T00:24:24.442Z,980.16
2018-12-22T00:25:24.590Z,980.16
2018-12-22T00:26:24.739Z,980.20
2018-12-22T00:27:24.890Z,980.13
2018-12-22T00:28:25.044Z,980.16
2018-12-22T00:29:25.191Z,980.15
2018-12-22T00:30:25.342Z,980.20
2018-12-22T00:31:25.491Z,980.24
2018-12-22T00:32:25.642Z,980.13
2018-12-22T00:33:25.793Z,980.17
2018-12-22T00:34:25.943Z,980.20
2018-12-22T00:35:26.094Z,980.25
2018-12-22T00:36:26.244Z,980.23
2018-12-22T00:37:26.392Z,980.22
2018-12-22T00:38:26.542Z,980.23
2018-12-22T00:39:26.694Z,980.27
2018-12-22T00:40:26.847Z,980.35
2018-12-22T00:41:26.994Z,980.34
2018-12-22T00:42:27.148Z,980.44
2018-12-22T00:43:27.292Z,980.38
2018-12-22T00:44:27.444Z,980.42
2018-12-22T00:45:27.594Z,980.41
2018-12-22T00:46:27.746Z,980.47
2018-12-22T00:47:27.899Z,980.44
2018-12-22T00:48:28.043Z,980.43
2018-12-22T00:49:28.191Z,980.51
2018-12-22T00:50:28.341Z,980.45
2018-12-22T00:51:28.494Z,980.50
2018-12-22T00:52:28.707Z,980.49
2018-12-22T00:53:28.791Z,980.49
2018-12-22T00:54:28.944Z,980.52
2018-12-22T00:55:29.093Z,980.43
2018-12-22T00:56:29.241Z,980.50
2018-12-22T00:57:29.395Z,980.47
2018-12-22T00:58:30.835Z,980.41
2018-12-22T00:59:29.692Z,980.42
2018-12-22T01:00:29.837Z,980.53
2018-12-22T01:01:29.988Z,980.54
2018-12-22T01:02:30.138Z,980.53
2018-12-22T01:03:30.288Z,980.51
2018-12-22T01:04:30.439Z,980.51
2018-12-22T01:05:30.588Z,980.66
2018-12-22T01:06:30.739Z,980.60
2018-12-22T01:07:30.887Z,980.59
2018-12-22T01:08:31.038Z,980.57
2018-12-22T01:09:31.186Z,980.65
2018-12-22T01:10:31.342Z,980.63
2018-12-22T01:11:31.519Z,980.69
2018-12-22T01:12:31.669Z,980.63
2018-12-22T01:13:31.815Z,980.65
2018-12-22T01:14:31.966Z,980.60
2018-12-22T01:15:32.114Z,980.63
2018-12-22T01:16:32.264Z,980.71
2018-12-22T01:17:32.413Z,980.81
2018-12-22T01:18:32.563Z,980.73
2018-12-22T01:19:32.714Z,980.74
2018-12-22T01:20:32.863Z,980.74
2018-12-22T01:21:33.013Z,980.82
2018-12-22T01:22:33.161Z,980.84
2018-12-22T01:23:33.312Z,980.75
2018-12-22T01:24:33.461Z,980.81
2018-12-22T01:25:33.608Z,980.74
2018-12-22T01:26:33.757Z,980.69
2018-12-22T01:27:33.908Z,980.81
2018-12-22T01:28:39.380Z,980.72
2018-12-22T01:29:34.207Z,980.67
2018-12-22T01:30:34.358Z,980.73
2018-12-22T01:31:34.508Z,980.74
2018-12-22T01:32:34.659Z,980.75
2018-12-22T01:33:34.810Z,980.72
2018-12-22T01:34:34.958Z,980.74
2018-12-22T01:35:35.109Z,980.71
2018-12-22T01:36:35.256Z,980.83
2018-12-22T01:37:35.405Z,980.85
2018-12-22T01:38:35.556Z,980.86
2018-12-22T01:39:35.709Z,980.86
2018-12-22T01:40:35.856Z,980.98
2018-12-22T01:41:36.009Z,980.91
2018-12-22T01:42:36.154Z,980.92
2018-12-22T01:43:36.305Z,980.91
2018-12-22T01:44:36.454Z,980.94
2018-12-22T01:45:36.605Z,981.00
2018-12-22T01:46:36.753Z,981.03
2018-12-22T01:47:36.904Z,981.03
2018-12-22T01:48:37.053Z,980.98
2018-12-22T01:49:37.201Z,980.94
2018-12-22T01:50:37.351Z,980.96
2018-12-22T01:51:37.500Z,981.02
2018-12-22T01:52:37.651Z,981.00
2018-12-22T01:53:37.801Z,980.95
2018-12-22T01:54:37.950Z,981.01
2018-12-22T01:55:38.100Z,980.95
2018-12-22T01:56:38.249Z,980.99
2018-12-22T01:57:38.399Z,981.02
2018-12-22T01:58:38.550Z,980.97
2018-12-22T01:59:38.700Z,980.93
2018-12-22T02:00:38.849Z,980.97
2018-12-22T02:01:38.998Z,981.10
2018-12-22T02:02:39.153Z,981.11
2018-12-22T02:03:39.298Z,981.07
2018-12-22T02:04:39.447Z,981.15
2018-12-22T02:05:39.596Z,981.10
2018-12-22T02:06:39.748Z,981.19
2018-12-22T02:07:39.896Z,981.15
2018-12-22T02:08:40.045Z,981.15
2018-12-22T02:09:40.195Z,981.15
2018-12-22T02:10:40.344Z,981.07
2018-12-22T02:11:40.490Z,981.00
2018-12-22T02:12:40.639Z,981.05
2018-12-22T02:13:40.788Z,981.05
2018-12-22T02:14:40.938Z,981.03
2018-12-22T02:15:41.086Z,981.04
2018-12-22T02:16:41.239Z,981.02
2018-12-22T02:17:41.388Z,980.99
2018-12-22T02:18:41.535Z,980.96
2018-12-22T02:19:41.691Z,980.99
2018-12-22T02:20:41.834Z,980.96
2018-12-22T02:21:41.985Z,980.92
2018-12-22T02:22:42.135Z,980.93
2018-12-22T02:23:42.284Z,980.92
2018-12-22T02:24:42.432Z,980.97
2018-12-22T02:25:42.581Z,980.93
2018-12-22T02:26:42.735Z,980.94
2018-12-22T02:27:42.881Z,980.93
2018-12-22T02:28:43.031Z,980.95
2018-12-22T02:29:43.178Z,980.97
2018-12-22T02:30:43.327Z,980.96
2018-12-22T02:31:43.478Z,980.95
2018-12-22T02:32:43.629Z,980.93
2018-12-22T02:33:43.773Z,980.95
2018-12-22T02:34:43.921Z,980.94
2018-12-22T02:35:44.069Z,980.99
2018-12-22T02:36:44.220Z,980.94
2018-12-22T02:37:44.369Z,980.96
2018-12-22T02:38:44.519Z,980.96
2018-12-22T02:39:44.667Z,981.00
2018-12-22T02:40:44.815Z,980.96
2018-12-22T02:41:44.965Z,980.94
2018-12-22T02:42:45.114Z,980.92
2018-12-22T02:43:45.264Z,980.91
2018-12-22T02:44:45.413Z,980.94
2018-12-22T02:45:45.565Z,980.95
2018-12-22T02:46:45.711Z,980.97
2018-12-22T02:47:45.860Z,980.89
2018-12-22T02:48:46.011Z,980.95
2018-12-22T02:49:46.160Z,980.95
2018-12-22T02:50:46.309Z,980.96
2018-12-22T02:51:46.456Z,980.92
2018-12-22T02:52:46.605Z,980.94
2018-12-22T02:53:46.756Z,980.88
2018-12-22T02:54:46.905Z,980.87
2018-12-22T02:55:47.054Z,980.82
2018-12-22T02:56:47.204Z,980.81
2018-12-22T02:57:47.349Z,980.80
2018-12-22T02:58:47.498Z,980.81
2018-12-22T02:59:47.646Z,980.77
2018-12-22T03:00:47.795Z,980.81
2018-12-22T03:01:47.943Z,980.78
2018-12-22T03:02:48.121Z,980.80
2018-12-22T03:03:48.239Z,980.78
2018-12-22T03:04:48.391Z,980.73
2018-12-22T03:05:48.539Z,980.78
2018-12-22T03:06:48.688Z,980.77
2018-12-22T03:07:48.840Z,980.75
2018-12-22T03:08:48.987Z,980.73
2018-12-22T03:09:49.272Z,980.79
2018-12-22T03:10:49.283Z,980.74
2018-12-22T03:11:49.432Z,980.67
2018-12-22T03:12:49.578Z,980.68
2018-12-22T03:13:49.727Z,980.65
2018-12-22T03:14:49.878Z,980.72
2018-12-22T03:15:50.028Z,980.72
2018-12-22T03:16:50.175Z,980.66
2018-12-22T03:17:50.324Z,980.69
2018-12-22T03:18:50.481Z,980.68
2018-12-22T03:19:50.626Z,980.72
2018-12-22T03:20:50.774Z,980.62
2018-12-22T03:21:50.924Z,980.61
2018-12-22T03:22:51.073Z,980.68
2018-12-22T03:23:51.219Z,980.65
2018-12-22T03:24:51.370Z,980.56
2018-12-22T03:25:51.516Z,980.57
2018-12-22T03:26:51.664Z,980.51
2018-12-22T03:27:51.812Z,980.64
2018-12-22T03:28:51.963Z,980.61
2018-12-22T03:29:52.115Z,980.61
2018-12-22T03:30:52.268Z,980.59
2018-12-22T03:31:52.557Z,980.65
2018-12-22T03:32:52.558Z,980.66
2018-12-22T03:33:52.705Z,980.67
2018-12-22T03:34:52.859Z,980.67
2018-12-22T03:35:53.006Z,980.64
2018-12-22T03:36:53.154Z,980.73
2018-12-22T03:37:53.304Z,980.69
2018-12-22T03:38:53.454Z,980.69
2018-12-22T03:39:53.602Z,980.69
2018-12-22T03:40:53.753Z,980.68
2018-12-22T03:41:53.898Z,980.68
2018-12-22T03:42:54.050Z,980.69
2018-12-22T03:43:54.198Z,980.61
2018-12-22T03:44:54.351Z,980.66
2018-12-22T03:45:54.498Z,980.68
2018-12-22T03:46:54.646Z,980.61
2018-12-22T03:47:54.797Z,980.59
2018-12-22T03:48:54.943Z,980.59
2018-12-22T03:49:55.091Z,980.58
2018-12-22T03:50:55.243Z,980.55
2018-12-22T03:51:55.393Z,980.63
2018-12-22T03:52:55.541Z,980.57
2018-12-22T03:53:55.688Z,980.58
2018-12-22T03:54:55.840Z,980.54
2018-12-22T03:55:55.988Z,980.57
2018-12-22T03:56:56.135Z,980.54
2018-12-22T03:57:56.286Z,980.50
2018-12-22T03:58:56.437Z,980.46
2018-12-22T03:59:56.584Z,980.48
2018-12-22T04:00:56.733Z,980.48
2018-12-22T04:01:56.881Z,980.42
2018-12-22T04:02:57.033Z,980.38
2018-12-22T04:03:57.182Z,980.40
2018-12-22T04:04:57.330Z,980.43
2018-12-22T04:05:57.481Z,980.33
2018-12-22T04:06:57.633Z,980.32
2018-12-22T04:07:57.777Z,980.29
2018-12-22T04:08:57.927Z,980.34
2018-12-22T04:09:58.074Z,980.30
2018-12-22T04:10:58.219Z,980.36
2018-12-22T04:11:58.426Z,980.36
2018-12-22T04:12:58.522Z,980.34
2018-12-22T04:13:58.670Z,980.34
2018-12-22T04:14:58.820Z,980.35
2018-12-22T04:15:58.970Z,980.33
2018-12-22T04:16:59.117Z,980.33
2018-12-22T04:17:59.265Z,980.28
2018-12-22T04:18:59.416Z,980.36
2018-12-22T04:19:59.576Z,980.31
2018-12-22T04:20:59.713Z,980.29
2018-12-22T04:21:59.863Z,980.28
2018-12-22T04:23:00.018Z,980.23
2018-12-22T04:24:00.164Z,980.24
2018-12-22T04:25:00.311Z,980.24
2018-12-22T04:26:00.460Z,980.25
2018-12-22T04:27:00.612Z,980.28
2018-12-22T04:28:00.761Z,980.27
2018-12-22T04:29:00.911Z,980.28
2018-12-22T04:30:01.056Z,980.22
2018-12-22T04:31:01.210Z,980.18
2018-12-22T04:32:01.359Z,980.21
2018-12-22T04:33:01.499Z,980.19
2018-12-22T04:34:01.657Z,980.20
2018-12-22T04:35:01.811Z,980.24
2018-12-22T04:36:01.956Z,980.25
2018-12-22T04:37:02.111Z,980.22
2018-12-22T04:38:02.265Z,980.25
2018-12-22T04:39:02.402Z,980.19
2018-12-22T04:40:02.554Z,980.17
2018-12-22T04:41:02.700Z,980.16
2018-12-22T04:42:02.850Z,980.21
2018-12-22T04:43:02.998Z,980.26
2018-12-22T04:44:03.146Z,980.30
2018-12-22T04:45:03.300Z,980.31
2018-12-22T04:46:03.448Z,980.38
2018-12-22T04:47:03.597Z,980.37
2018-12-22T04:48:03.745Z,980.35
2018-12-22T04:49:03.899Z,980.33
2018-12-22T04:50:04.044Z,980.34
2018-12-22T04:51:04.194Z,980.28
2018-12-22T04:52:04.347Z,980.30
2018-12-22T04:53:04.494Z,980.21
2018-12-22T04:54:04.640Z,980.23
2018-12-22T04:55:04.791Z,980.17
2018-12-22T04:56:04.946Z,980.15
2018-12-22T04:57:05.086Z,980.16
2018-12-22T04:58:05.236Z,980.20
2018-12-22T04:59:05.387Z,980.28
2018-12-22T05:00:05.534Z,980.19
2018-12-22T05:01:05.683Z,980.30
2018-12-22T05:02:05.832Z,980.30
2018-12-22T05:03:05.979Z,980.23
2018-12-22T05:04:06.134Z,980.17
2018-12-22T05:05:06.280Z,980.20
2018-12-22T05:06:06.431Z,980.26
2018-12-22T05:07:06.578Z,980.24
2018-12-22T05:08:06.725Z,980.26
2018-12-22T05:09:06.880Z,980.23
2018-12-22T05:10:07.023Z,980.25
2018-12-22T05:11:07.173Z,980.22
2018-12-22T05:12:07.324Z,980.18
2018-12-22T05:13:07.474Z,980.22
2018-12-22T05:14:07.622Z,980.33
2018-12-22T05:15:07.770Z,980.31
2018-12-22T05:16:07.918Z,980.38
2018-12-22T05:17:08.065Z,980.28
2018-12-22T05:18:08.215Z,980.33
2018-12-22T05:19:08.365Z,980.24
2018-12-22T05:20:08.513Z,980.29
2018-12-22T05:21:08.662Z,980.36
2018-12-22T05:22:08.814Z,980.28
2018-12-22T05:23:08.960Z,980.31
2018-12-22T05:24:09.111Z,980.34
2018-12-22T05:25:09.261Z,980.30
2018-12-22T05:26:09.410Z,980.34
2018-12-22T05:27:09.563Z,980.41
2018-12-22T05:28:09.708Z,980.34
2018-12-22T05:29:09.859Z,980.36
2018-12-22T05:30:10.007Z,980.38
2018-12-22T05:31:10.155Z,980.30
2018-12-22T05:32:10.308Z,980.35
2018-12-22T05:33:10.452Z,980.43
2018-12-22T05:34:10.601Z,980.34
2018-12-22T05:35:10.751Z,980.40
2018-12-22T05:36:10.901Z,980.26
2018-12-22T05:37:11.049Z,980.28
2018-12-22T05:38:11.202Z,980.35
2018-12-22T05:39:11.352Z,980.35
2018-12-22T05:40:11.498Z,980.39
2018-12-22T05:41:11.647Z,980.24
2018-12-22T05:42:11.801Z,980.29
2018-12-22T05:43:11.944Z,980.29
2018-12-22T05:44:12.095Z,980.24
2018-12-22T05:45:12.244Z,980.23
2018-12-22T05:46:12.392Z,980.22
2018-12-22T05:47:12.542Z,980.28
2018-12-22T05:48:12.691Z,980.28
2018-12-22T05:49:12.840Z,980.38
2018-12-22T05:50:12.990Z,980.36
2018-12-22T05:51:13.141Z,980.34
2018-12-22T05:52:13.291Z,980.37
2018-12-22T05:53:13.437Z,980.33
2018-12-22T05:54:13.586Z,980.37
2018-12-22T05:55:13.737Z,980.34
2018-12-22T05:56:13.884Z,980.45
2018-12-22T05:57:14.032Z,980.33
2018-12-22T05:58:14.181Z,980.38
2018-12-22T05:59:14.330Z,980.32
2018-12-22T06:00:14.479Z,980.30
2018-12-22T06:01:14.627Z,980.30
2018-12-22T06:02:14.777Z,980.28
2018-12-22T06:03:14.924Z,980.26
2018-12-22T06:04:15.073Z,980.27
2018-12-22T06:05:16.781Z,980.28
2018-12-22T06:06:15.370Z,980.23
2018-12-22T06:07:15.518Z,980.31
2018-12-22T06:08:15.672Z,980.29
2018-12-22T06:09:15.816Z,980.34
2018-12-22T06:10:15.965Z,980.32
2018-12-22T06:11:16.114Z,980.29
2018-12-22T06:12:16.263Z,980.32
2018-12-22T06:13:16.412Z,980.31
2018-12-22T06:14:16.560Z,980.32
2018-12-22T06:15:16.707Z,980.32
2018-12-22T06:16:16.857Z,980.25
2018-12-22T06:17:17.007Z,980.23
2018-12-22T06:18:17.154Z,980.25
2018-12-22T06:19:17.306Z,980.22
2018-12-22T06:20:17.453Z,980.14
2018-12-22T06:21:17.601Z,980.24
2018-12-22T06:22:17.754Z,980.26
2018-12-22T06:23:17.901Z,980.29
2018-12-22T06:24:18.052Z,980.25
2018-12-22T06:25:18.200Z,980.30
2018-12-22T06:26:18.349Z,980.28
2018-12-22T06:27:18.586Z,980.34
2018-12-22T06:28:18.647Z,980.44
2018-12-22T06:29:18.795Z,980.35
2018-12-22T06:30:18.946Z,980.35
2018-12-22T06:31:19.092Z,980.40
2018-12-22T06:32:19.242Z,980.52
2018-12-22T06:33:19.391Z,980.35
2018-12-22T06:34:19.541Z,980.43
2018-12-22T06:35:19.686Z,980.32
2018-12-22T06:36:19.838Z,980.32
2018-12-22T06:37:19.987Z,980.22
2018-12-22T06:38:20.136Z,980.26
2018-12-22T06:39:20.285Z,980.39
2018-12-22T06:40:20.437Z,980.42
2018-12-22T06:41:20.585Z,980.33
2018-12-22T06:42:20.732Z,980.34
2018-12-22T06:43:20.883Z,980.32
2018-12-22T06:44:21.030Z,980.26
2018-12-22T06:45:21.179Z,980.32
2018-12-22T06:46:21.329Z,980.32
2018-12-22T06:47:21.480Z,980.33
2018-12-22T06:48:21.628Z,980.39
2018-12-22T06:49:21.780Z,980.43
2018-12-22T06:50:21.928Z,980.55
2018-12-22T06:51:22.073Z,980.61
2018-12-22T06:52:22.224Z,980.44
2018-12-22T06:53:22.371Z,980.53
2018-12-22T06:54:22.522Z,980.56
2018-12-22T06:55:22.673Z,980.57
2018-12-22T06:56:22.821Z,980.65
2018-12-22T06:57:22.970Z,980.69
2018-12-22T06:58:23.119Z,980.68
2018-12-22T06:59:23.336Z,980.79
2018-12-22T07:00:23.415Z,980.70
2018-12-22T07:01:23.566Z,980.63
2018-12-22T07:02:23.717Z,980.74
2018-12-22T07:03:23.866Z,980.67
2018-12-22T07:04:24.014Z,980.77
2018-12-22T07:05:24.161Z,980.73
2018-12-22T07:06:24.310Z,980.71
2018-12-22T07:07:24.459Z,980.69
2018-12-22T07:08:24.608Z,980.70
2018-12-22T07:09:24.763Z,980.76
2018-12-22T07:10:25.581Z,980.71
2018-12-22T07:11:25.061Z,980.69
2018-12-22T07:12:25.207Z,980.66
2018-12-22T07:13:25.362Z,980.56
2018-12-22T07:14:25.507Z,980.61
2018-12-22T07:15:25.655Z,980.65
2018-12-22T07:16:25.805Z,980.68
2018-12-22T07:17:25.958Z,980.66
2018-12-22T07:18:26.102Z,980.70
2018-12-22T07:19:26.251Z,980.71
2018-12-22T07:20:26.402Z,980.70
2018-12-22T07:21:26.551Z,980.73
2018-12-22T07:22:26.701Z,980.75
2018-12-22T07:23:26.850Z,980.69
2018-12-22T07:24:26.999Z,980.71
2018-12-22T07:25:27.149Z,980.74
2018-12-22T07:26:27.297Z,980.69
2018-12-22T07:27:27.448Z,980.75
2018-12-22T07:28:27.597Z,980.74
2018-12-22T07:29:27.745Z,980.78
2018-12-22T07:30:27.895Z,980.85
2018-12-22T07:31:28.043Z,980.78
2018-12-22T07:32:28.195Z,980.77
2018-12-22T07:33:28.344Z,980.80
2018-12-22T07:34:28.492Z,980.82
2018-12-22T07:35:28.643Z,980.79
2018-12-22T07:36:28.793Z,980.86
2018-12-22T07:37:28.942Z,980.82
2018-12-22T07:38:29.089Z,980.90
2018-12-22T07:39:29.247Z,980.89
2018-12-22T07:40:29.387Z,980.95
2018-12-22T07:41:29.536Z,980.89
2018-12-22T07:42:29.684Z,980.86
2018-12-22T07:43:29.831Z,980.92
2018-12-22T07:44:29.982Z,980.91
2018-12-22T07:45:30.130Z,980.91
2018-12-22T07:46:30.398Z,980.96
2018-12-22T07:47:30.473Z,980.98
2018-12-22T07:48:30.613Z,981.06
2018-12-22T07:49:30.761Z,981.03
2018-12-22T07:50:30.912Z,981.11
2018-12-22T07:51:31.061Z,981.01
2018-12-22T07:52:31.210Z,981.11
2018-12-22T07:53:31.361Z,981.17
2018-12-22T07:54:31.504Z,981.17
2018-12-22T07:55:31.649Z,981.16
2018-12-22T07:56:31.798Z,981.12
2018-12-22T07:57:31.947Z,981.21
2018-12-22T07:58:32.098Z,981.19
2018-12-22T07:59:32.261Z,981.15
2018-12-22T08:00:35.100Z,981.15
2018-12-22T08:01:32.556Z,981.27
2018-12-22T08:02:32.707Z,981.16
2018-12-22T08:03:32.858Z,981.22
2018-12-22T08:04:33.006Z,981.23
2018-12-22T08:05:38.613Z,981.32
2018-12-22T08:06:33.303Z,981.38
2018-12-22T08:07:33.454Z,981.30
2018-12-22T08:08:33.604Z,981.51
2018-12-22T08:09:33.757Z,981.41
2018-12-22T08:10:33.905Z,981.41
2018-12-22T08:11:34.058Z,981.45
2018-12-22T08:12:34.201Z,981.49
2018-12-22T08:13:34.361Z,981.48
2018-12-22T08:14:34.619Z,981.51
2018-12-22T08:15:34.731Z,981.53
2018-12-22T08:16:34.779Z,981.57
2018-12-22T08:17:34.925Z,981.61
2018-12-22T08:18:35.076Z,981.56
2018-12-22T08:19:35.226Z,981.66
2018-12-22T08:20:35.375Z,981.67
2018-12-22T08:21:35.532Z,981.79
2018-12-22T08:22:35.680Z,981.81
2018-12-22T08:23:35.824Z,981.80
2018-12-22T08:24:35.973Z,981.79
2018-12-22T08:25:36.123Z,981.98
2018-12-22T08:26:36.272Z,981.91
2018-12-22T08:27:36.420Z,981.92
2018-12-22T08:28:36.573Z,982.04
2018-12-22T08:29:36.720Z,982.06
2018-12-22T08:30:43.454Z,982.03
2018-12-22T08:31:37.018Z,981.92
2018-12-22T08:32:37.168Z,981.85
2018-12-22T08:33:37.317Z,982.00
2018-12-22T08:34:37.467Z,981.94
2018-12-22T08:35:37.616Z,981.93
2018-12-22T08:36:37.766Z,981.98
2018-12-22T08:37:37.915Z,981.88
2018-12-22T08:38:38.063Z,981.98
2018-12-22T08:39:38.213Z,982.09
2018-12-22T08:40:38.364Z,982.12
2018-12-22T08:41:38.510Z,982.22
2018-12-22T08:42:38.658Z,982.20
2018-12-22T08:43:38.808Z,982.35
2018-12-22T08:44:38.957Z,982.31
2018-12-22T08:45:39.105Z,982.35
2018-12-22T08:46:39.254Z,982.40
2018-12-22T08:47:39.403Z,982.42
2018-12-22T08:48:39.552Z,982.41
2018-12-22T08:49:39.704Z,982.43
2018-12-22T08:50:39.850Z,982.44
2018-12-22T08:51:40.003Z,982.49
2018-12-22T08:52:40.150Z,982.57
2018-12-22T08:53:40.298Z,982.56
2018-12-22T08:54:40.447Z,982.53
2018-12-22T08:55:40.598Z,982.53
2018-12-22T08:56:40.746Z,982.60
2018-12-22T08:57:40.895Z,982.59
2018-12-22T08:58:41.042Z,982.67
2018-12-22T08:59:41.191Z,982.65
2018-12-22T09:00:41.340Z,982.71
2018-12-22T09:01:41.491Z,982.77
2018-12-22T09:02:41.644Z,982.83
2018-12-22T09:03:41.791Z,982.82
2018-12-22T09:04:41.939Z,982.83
2018-12-22T09:05:42.091Z,982.82
2018-12-22T09:06:42.240Z,982.80
2018-12-22T09:07:42.514Z,982.84
2018-12-22T09:08:42.536Z,982.84
2018-12-22T09:09:42.695Z,982.83
2018-12-22T09:10:42.835Z,982.82
2018-12-22T09:11:42.983Z,982.76
2018-12-22T09:12:43.135Z,982.84
2018-12-22T09:13:43.282Z,982.83
2018-12-22T09:14:43.430Z,982.83
2018-12-22T09:15:43.580Z,982.76
2018-12-22T09:16:43.726Z,982.84
2018-12-22T09:17:43.876Z,982.84
2018-12-22T09:18:44.025Z,982.88
2018-12-22T09:19:44.174Z,983.01
2018-12-22T09:20:44.323Z,982.94
2018-12-22T09:21:44.472Z,983.00
2018-12-22T09:22:44.621Z,983.04
2018-12-22T09:23:44.770Z,983.07
2018-12-22T09:24:44.917Z,983.02
2018-12-22T09:25:45.066Z,983.12
2018-12-22T09:26:45.216Z,983.11
2018-12-22T09:27:45.363Z,983.10
2018-12-22T09:28:45.512Z,983.17
2018-12-22T09:29:45.662Z,983.13
2018-12-22T09:30:45.812Z,983.12
2018-12-22T09:31:45.964Z,983.14
2018-12-22T09:32:46.111Z,983.16
2018-12-22T09:33:46.260Z,983.14
2018-12-22T09:34:46.411Z,983.16
2018-12-22T09:35:46.558Z,983.20
2018-12-22T09:36:46.706Z,983.21
2018-12-22T09:37:46.856Z,983.16
2018-12-22T09:38:47.007Z,983.16
2018-12-22T09:39:47.159Z,983.23
2018-12-22T09:40:47.306Z,983.21
2018-12-22T09:41:47.465Z,983.20
2018-12-22T09:42:47.603Z,983.25
2018-12-22T09:43:47.752Z,983.19
2018-12-22T09:44:47.902Z,983.20
2018-12-22T09:45:48.052Z,983.24
2018-12-22T09:46:48.202Z,983.31
2018-12-22T09:47:48.354Z,983.33
2018-12-22T09:48:48.506Z,983.41
2018-12-22T09:49:48.662Z,983.32
2018-12-22T09:50:48.802Z,983.34
2018-12-22T09:51:48.961Z,983.50
2018-12-22T09:52:49.118Z,983.50
2018-12-22T09:53:49.262Z,983.54
2018-12-22T09:54:49.410Z,983.52
2018-12-22T09:55:49.557Z,983.60
2018-12-22T09:56:49.711Z,983.52
2018-12-22T09:57:49.858Z,983.53
2018-12-22T09:58:50.009Z,983.63
2018-12-22T09:59:50.157Z,983.65
2018-12-22T10:00:50.307Z,983.66
2018-12-22T10:01:50.457Z,983.71
2018-12-22T10:02:50.609Z,983.74
2018-12-22T10:03:50.761Z,983.81
2018-12-22T10:04:50.911Z,983.82
2018-12-22T10:05:51.061Z,983.84
2018-12-22T10:06:51.210Z,983.81
2018-12-22T10:07:51.361Z,983.88
2018-12-22T10:08:51.520Z,983.84
2018-12-22T10:09:51.666Z,983.89
2018-12-22T10:10:51.811Z,983.90
2018-12-22T10:11:51.961Z,983.90
2018-12-22T10:12:52.112Z,983.94
2018-12-22T10:13:52.261Z,983.98
2018-12-22T10:14:52.411Z,984.01
2018-12-22T10:15:52.559Z,984.09
2018-12-22T10:16:52.712Z,984.03
2018-12-22T10:17:52.862Z,984.05
2018-12-22T10:18:53.012Z,984.05
2018-12-22T10:19:53.160Z,984.10
2018-12-22T10:20:53.312Z,984.21
2018-12-22T10:21:53.459Z,984.18
2018-12-22T10:22:53.611Z,984.16
2018-12-22T10:23:53.763Z,984.15
2018-12-22T10:24:53.909Z,984.21
2018-12-22T10:25:54.057Z,984.30
2018-12-22T10:26:54.211Z,984.31
2018-12-22T10:27:54.361Z,984.31
2018-12-22T10:28:54.513Z,984.35
2018-12-22T10:29:54.664Z,984.32
2018-12-22T10:30:54.813Z,984.32
2018-12-22T10:31:54.963Z,984.27
2018-12-22T10:32:55.113Z,984.33
2018-12-22T10:33:55.263Z,984.33
2018-12-22T10:34:55.415Z,984.38
2018-12-22T10:35:55.562Z,984.42
2018-12-22T10:36:55.714Z,984.40
2018-12-22T10:37:55.865Z,984.34
2018-12-22T10:38:56.014Z,984.35
2018-12-22T10:39:56.163Z,984.37
2018-12-22T10:40:56.313Z,984.40
2018-12-22T10:41:56.462Z,984.47
2018-12-22T10:42:56.609Z,984.46
2018-12-22T10:43:56.761Z,984.47
2018-12-22T10:44:56.910Z,984.47
2018-12-22T10:45:57.059Z,984.40
2018-12-22T10:46:57.210Z,984.43
2018-12-22T10:47:57.357Z,984.43
2018-12-22T10:48:57.505Z,984.51
2018-12-22T10:49:57.664Z,984.47
2018-12-22T10:50:57.811Z,984.46
2018-12-22T10:51:57.961Z,984.48
2018-12-22T10:52:58.109Z,984.44
2018-12-22T10:53:58.258Z,984.47
2018-12-22T10:54:58.412Z,984.56
2018-12-22T10:55:58.564Z,984.55
2018-12-22T10:56:58.709Z,984.51
2018-12-22T10:57:59.966Z,984.51
2018-12-22T10:58:59.014Z,984.56
2018-12-22T10:59:59.161Z,984.59
2018-12-22T11:00:59.319Z,984.60
2018-12-22T11:01:59.462Z,984.58
2018-12-22T11:02:59.610Z,984.63
2018-12-22T11:03:59.767Z,984.71
2018-12-22T11:04:59.913Z,984.69
2018-12-22T11:06:00.060Z,984.70
2018-12-22T11:07:00.211Z,984.68
2018-12-22T11:08:00.361Z,984.77
2018-12-22T11:09:00.508Z,984.62
2018-12-22T11:10:00.659Z,984.72
2018-12-22T11:11:00.807Z,984.75
2018-12-22T11:12:00.959Z,984.75
2018-12-22T11:13:01.111Z,984.70
2018-12-22T11:14:01.257Z,984.71
2018-12-22T11:15:01.410Z,984.73
2018-12-22T11:16:01.560Z,984.73
2018-12-22T11:17:01.706Z,984.80
2018-12-22T11:18:01.863Z,984.82
2018-12-22T11:19:01.986Z,984.83
2018-12-22T11:20:02.135Z,984.86
2018-12-22T11:21:02.287Z,984.81
2018-12-22T11:22:02.434Z,984.83
2018-12-22T11:23:02.583Z,984.86
2018-12-22T11:24:03.029Z,984.94
2018-12-22T11:25:02.884Z,984.95
2018-12-22T11:26:03.157Z,984.95
2018-12-22T11:27:03.217Z,984.93
2018-12-22T11:28:03.365Z,985.02
2018-12-22T11:29:03.520Z,984.96
2018-12-22T11:30:03.668Z,985.06
2018-12-22T11:31:03.816Z,985.05
2018-12-22T11:32:03.967Z,985.09
2018-12-22T11:33:04.120Z,985.06
2018-12-22T11:34:04.290Z,985.10
2018-12-22T11:35:05.478Z,985.19
2018-12-22T11:36:04.759Z,985.13
2018-12-22T11:37:04.767Z,985.20
2018-12-22T11:38:04.921Z,985.16
2018-12-22T11:39:05.086Z,985.15
2018-12-22T11:40:05.216Z,985.18
2018-12-22T11:41:05.366Z,985.22
2018-12-22T11:42:05.515Z,985.29
2018-12-22T11:43:05.667Z,985.24
2018-12-22T11:44:05.815Z,985.21
2018-12-22T11:45:05.964Z,985.31
2018-12-22T11:46:06.112Z,985.32
2018-12-22T11:47:06.262Z,985.33
2018-12-22T11:48:06.412Z,985.33
2018-12-22T11:49:06.566Z,985.38
2018-12-22T11:50:06.716Z,985.38
2018-12-22T11:51:06.871Z,985.43
2018-12-22T11:52:07.018Z,985.41
2018-12-22T11:53:07.170Z,985.48
2018-12-22T11:54:07.318Z,985.45
2018-12-22T11:55:07.464Z,985.36
2018-12-22T11:56:07.617Z,985.46
2018-12-22T11:57:07.766Z,985.53
2018-12-22T11:58:07.915Z,985.56
2018-12-22T11:59:08.065Z,985.68
2018-12-22T12:00:08.214Z,985.69
2018-12-22T12:01:08.364Z,985.63
2018-12-22T12:02:09.855Z,985.68
2018-12-22T12:03:08.664Z,985.78
2018-12-22T12:04:08.812Z,985.74
2018-12-22T12:05:08.963Z,985.79
2018-12-22T12:06:09.109Z,985.70
2018-12-22T12:07:09.262Z,985.81
2018-12-22T12:08:09.408Z,985.81
2018-12-22T12:09:09.615Z,985.79
2018-12-22T12:10:09.699Z,985.85
2018-12-22T12:11:09.853Z,985.83
2018-12-22T12:12:10.004Z,985.80
2018-12-22T12:13:10.154Z,985.88
2018-12-22T12:14:10.301Z,985.92
2018-12-22T12:15:10.450Z,985.96
2018-12-22T12:16:10.602Z,985.94
2018-12-22T12:17:10.751Z,985.97
2018-12-22T12:18:10.908Z,985.90
2018-12-22T12:19:11.055Z,985.96
2018-12-22T12:20:11.203Z,985.90
2018-12-22T12:21:11.358Z,985.94
2018-12-22T12:22:11.505Z,985.93
2018-12-22T12:23:11.654Z,985.95
2018-12-22T12:24:11.806Z,985.90
2018-12-22T12:25:11.957Z,985.97
2018-12-22T12:26:12.105Z,985.96
2018-12-22T12:27:12.261Z,985.92
2018-12-22T12:28:12.410Z,985.96
2018-12-22T12:29:12.561Z,986.03
2018-12-22T12:30:12.739Z,986.01